Udon Thani, Thailand

10:09 PM ICT on August 30, 2016 (GMT +0700)
Nongsai Udonthani | | Change Station

Elev 577 ft 17.41 °N, 102.83 °E | Updated 6 seconds ago

Light Rain
Light Rain
78.3 °F
Feels Like 81 °F
N
2.0
Wind Variable Wind from SW
Gusts 5.0 mph

Today
High -- | Low -- °F
--% Chance of Precip.
Yesterday
High -- | Low -- °F
Precip. -- in
Pressure 29.83 in
Visibility 5.6 miles
Clouds Few 1800 ft
Mostly Cloudy 5000 ft
Mostly Cloudy 9000 ft
Heat Index 81 °F
Dew Point 76 °F
Humidity 92%
Rainfall 0.05 in
Snow Depth Not available.
5:54 AM 6:23 PM
Waning Crescent, 3% visible
METAR VTUD 301500Z 16006KT 9000 -RA FEW018CB BKN050 BKN090 26/25 Q1010
Pressure 29.83 in
Visibility 5.6 miles
Clouds Few 1800 ft
Mostly Cloudy 5000 ft
Mostly Cloudy 9000 ft
Heat Index 81 °F
Dew Point 76 °F
Humidity 92%
Rainfall 0.05 in
Snow Depth Not available.
5:54 AM 6:23 PM
Waning Crescent, 3% visible
METAR VTUD 301500Z 16006KT 9000 -RA FEW018CB BKN050 BKN090 26/25 Q1010

10-Day Weather Forecast

No radar image for this location.
×

Almanac

Astronomy

Aug. 30, 2016 Rise Set
Actual Time
Civil Twilight
Nautical Twilight
Astronomical Twilight
Moon
Length of Visible Light
Length of Day
Tomorrow will be .
, % of the Moon is Illuminated

Today's Extremes

Country Highs Country Lows

Community

WunderPhotos

Upload Photos

1,935,853 photos uploaded!

WunderBlog® & News

Nearby

Air Quality

  Air Quality AQ Index Pollutant
Not available.

Snow Depth

Station Depth Elevation

Earthquake Activity

City Distance Mag. Time & Date
Minimum magnitude displayed is 2.5.

Coastal Water Temperatures

Place Temperature

Stations

Nearby Weather Stations

Station Location Temp. Windchill Dew Point Humidity Wind Precip. Elev Updated Type